Time;durP1;ratioP1;P1;durP2;ratioP2;P2;SDS_P1;SDS_P2;PMS_P1;PMS_P2;Temp;Humidity;BMP_temperature;BMP_pressure;BME280_temperature;BME280_humidity;BME280_pressure;Samples;Min_cycle;Max_cycle;Signal;HPM_P1;HPM_P2
2022/04/12 00:01:35;;;;;;;7.82;5.50;;;11.10;51.40;;;;;;5094777;28;20032;-74
2022/04/12 00:04:01;;;;;;;6.43;5.25;;;11.10;51.40;;;;;;5086251;28;20031;-73
2022/04/12 00:06:27;;;;;;;6.80;5.32;;;11.00;51.40;;;;;;5102197;28;20055;-75
2022/04/12 00:08:53;;;;;;;7.22;5.03;;;11.00;51.40;;;;;;5104987;27;20048;-73
2022/04/12 00:11:19;;;;;;;8.02;5.90;;;11.00;51.40;;;;;;5088558;28;20092;-72
2022/04/12 00:13:44;;;;;;;6.88;5.10;;;11.00;51.60;;;;;;5077378;28;20020;-72
2022/04/12 00:16:10;;;;;;;7.65;5.55;;;11.00;51.50;;;;;;5099235;28;20039;-72
2022/04/12 00:21:20;;;;;;;8.73;5.82;;;10.90;51.60;;;;;;5102362;28;20047;-73
2022/04/12 00:23:46;;;;;;;7.38;6.05;;;10.90;51.70;;;;;;5084103;28;20020;-72
2022/04/12 00:26:13;;;;;;;7.68;5.45;;;10.90;51.80;;;;;;5097933;28;20028;-73
2022/04/12 00:28:40;;;;;;;7.10;5.18;;;10.90;51.90;;;;;;5096839;27;20031;-73
2022/04/12 00:31:06;;;;;;;8.98;6.40;;;10.80;51.90;;;;;;5098785;28;20517;-75
2022/04/12 00:33:32;;;;;;;7.70;5.93;;;10.90;52.10;;;;;;5100818;28;20034;-72
2022/04/12 00:36:00;;;;;;;13.43;7.47;;;10.80;52.10;;;;;;5101987;27;20141;-73
2022/04/12 00:38:27;;;;;;;7.55;5.85;;;10.80;52.30;;;;;;5084030;28;20452;-73
2022/04/12 00:40:54;;;;;;;6.85;5.10;;;10.80;52.30;;;;;;5095660;28;20125;-73
2022/04/12 00:43:20;;;;;;;7.60;5.45;;;10.80;52.20;;;;;;5102287;28;20501;-73
2022/04/12 00:45:47;;;;;;;7.38;5.00;;;10.80;52.30;;;;;;5098282;28;20150;-73
2022/04/12 00:48:13;;;;;;;6.63;4.97;;;10.70;52.40;;;;;;5078896;28;20020;-73
2022/04/12 00:50:41;;;;;;;6.82;5.22;;;10.70;52.40;;;;;;5083452;28;20027;-74
2022/04/12 00:53:08;;;;;;;6.68;4.90;;;10.70;52.50;;;;;;5081989;28;20169;-73
2022/04/12 00:55:34;;;;;;;7.18;5.65;;;10.70;52.60;;;;;;5098982;28;20032;-73
2022/04/12 00:58:06;;;;;;;7.47;5.10;;;10.60;52.70;;;;;;5099392;28;20032;-74
2022/04/12 01:00:32;;;;;;;6.82;5.53;;;10.60;52.70;;;;;;5079955;28;20016;-74
2022/04/12 01:02:58;;;;;;;7.47;5.53;;;10.60;52.70;;;;;;5101635;28;20035;-73
2022/04/12 01:05:23;;;;;;;7.78;5.60;;;10.60;52.70;;;;;;5104380;28;20028;-72
2022/04/12 01:07:50;;;;;;;8.55;5.70;;;10.60;52.70;;;;;;5086224;28;20024;-73
2022/04/12 01:10:15;;;;;;;7.35;5.53;;;10.60;52.80;;;;;;5108987;28;20055;-72
2022/04/12 01:12:41;;;;;;;6.55;5.35;;;10.60;52.90;;;;;;5103708;28;20541;-73
2022/04/12 01:15:11;;;;;;;9.20;5.93;;;10.60;52.80;;;;;;5082476;28;20473;-74
2022/04/12 01:17:37;;;;;;;7.38;5.57;;;10.50;52.90;;;;;;5086075;28;20051;-73
2022/04/12 01:20:03;;;;;;;6.65;5.35;;;10.50;52.80;;;;;;5102405;28;20032;-73
2022/04/12 01:22:30;;;;;;;6.88;5.00;;;10.50;52.90;;;;;;5099205;28;20027;-72
2022/04/12 01:24:56;;;;;;;7.43;5.38;;;10.50;52.90;;;;;;5093227;28;20020;-71
2022/04/12 01:27:22;;;;;;;7.18;5.18;;;10.50;53.00;;;;;;5098596;28;20026;-71
2022/04/12 01:29:49;;;;;;;7.18;5.13;;;10.50;53.00;;;;;;5097456;28;20028;-72
2022/04/12 01:32:15;;;;;;;7.93;5.32;;;10.40;53.00;;;;;;5095901;28;20023;-71
2022/04/12 01:34:40;;;;;;;7.63;5.22;;;10.40;53.00;;;;;;5110221;28;20028;-73
2022/04/12 01:37:07;;;;;;;7.50;5.60;;;10.40;53.10;;;;;;5103294;28;20078;-72
2022/04/12 01:39:33;;;;;;;7.65;5.68;;;10.40;53.20;;;;;;5098853;28;20028;-70
2022/04/12 01:41:58;;;;;;;6.55;5.03;;;10.40;53.20;;;;;;5100621;28;20031;-72
2022/04/12 01:44:24;;;;;;;8.38;5.57;;;10.30;53.20;;;;;;5098812;28;20035;-71
2022/04/12 01:46:50;;;;;;;7.07;4.82;;;10.30;54.00;;;;;;5088861;28;20030;-72
2022/04/12 01:49:16;;;;;;;6.47;4.95;;;10.30;53.40;;;;;;5106975;28;20020;-70
2022/04/12 01:51:42;;;;;;;7.72;5.40;;;10.30;53.50;;;;;;5103330;28;20050;-71
2022/04/12 01:54:08;;;;;;;6.70;4.95;;;10.30;53.50;;;;;;5084238;28;20035;-70
2022/04/12 01:56:33;;;;;;;6.68;4.97;;;10.30;53.60;;;;;;5102512;28;20032;-71
2022/04/12 01:59:00;;;;;;;7.68;5.18;;;10.20;53.60;;;;;;5101615;28;20513;-71
2022/04/12 02:01:26;;;;;;;7.45;5.25;;;10.30;53.70;;;;;;5081651;28;20976;-71
2022/04/12 02:03:52;;;;;;;6.25;4.47;;;10.20;53.70;;;;;;5104695;28;20032;-71
2022/04/12 02:06:18;;;;;;;7.47;5.53;;;10.20;53.70;;;;;;5102411;27;20085;-71
2022/04/12 02:08:44;;;;;;;5.75;4.50;;;10.20;53.70;;;;;;5078639;28;20032;-72
2022/04/12 02:11:10;;;;;;;7.35;5.30;;;10.20;53.70;;;;;;5106536;27;20023;-72
2022/04/12 02:13:36;;;;;;;6.78;5.00;;;10.20;53.80;;;;;;5106629;28;20039;-72
2022/04/12 02:16:01;;;;;;;6.28;4.63;;;10.20;53.80;;;;;;5092868;28;20153;-73
2022/04/12 02:18:27;;;;;;;7.35;4.60;;;10.20;53.80;;;;;;5104706;28;20031;-73
2022/04/12 02:20:52;;;;;;;6.93;5.15;;;10.10;53.90;;;;;;5105242;28;20107;-73
2022/04/12 02:23:18;;;;;;;6.50;5.22;;;10.10;53.90;;;;;;5105782;28;20030;-75
2022/04/12 02:25:43;;;;;;;7.15;4.90;;;10.10;53.90;;;;;;5116004;27;20396;-72
2022/04/12 02:28:09;;;;;;;5.68;4.45;;;10.10;53.90;;;;;;5104015;27;20104;-73
2022/04/12 02:30:35;;;;;;;6.63;4.55;;;10.10;53.90;;;;;;5092415;28;20024;-71
2022/04/12 02:33:00;;;;;;;6.70;5.07;;;10.10;53.90;;;;;;5105330;27;20027;-72
2022/04/12 02:35:26;;;;;;;9.15;5.47;;;10.10;54.00;;;;;;5103700;28;20482;-71
2022/04/12 02:37:52;;;;;;;6.35;5.10;;;10.10;54.10;;;;;;5083594;28;20032;-71
2022/04/12 02:40:17;;;;;;;7.18;4.80;;;10.10;54.10;;;;;;5099867;28;20047;-71
2022/04/12 02:42:43;;;;;;;7.18;5.13;;;10.10;54.20;;;;;;5100017;28;20032;-72
2022/04/12 02:45:09;;;;;;;8.02;5.53;;;10.10;54.20;;;;;;5100802;28;20024;-70
2022/04/12 02:47:35;;;;;;;10.25;5.60;;;10.10;54.30;;;;;;5097951;28;20031;-70
2022/04/12 02:50:00;;;;;;;6.78;4.85;;;10.00;54.20;;;;;;5099421;28;20103;-71
2022/04/12 02:52:26;;;;;;;6.35;4.88;;;10.00;54.20;;;;;;5105024;28;20044;-73
2022/04/12 02:54:51;;;;;;;6.82;4.75;;;10.00;54.20;;;;;;5098718;28;20031;-74
2022/04/12 02:57:17;;;;;;;6.25;4.55;;;10.00;54.20;;;;;;5083588;28;20041;-72
2022/04/12 02:59:43;;;;;;;5.95;4.30;;;10.00;54.20;;;;;;5101917;27;20016;-72
2022/04/12 03:02:08;;;;;;;6.55;4.45;;;10.10;54.30;;;;;;5102202;28;20471;-73
2022/04/12 03:04:34;;;;;;;6.95;5.03;;;10.00;54.20;;;;;;5099209;28;20397;-70
2022/04/12 03:06:59;;;;;;;6.47;4.57;;;10.00;54.20;;;;;;5082032;28;20031;-73
2022/04/12 03:09:25;;;;;;;6.45;4.03;;;10.10;54.20;;;;;;5098341;28;20026;-72
2022/04/12 03:11:50;;;;;;;10.10;4.78;;;10.00;54.80;;;;;;5084064;28;20023;-70
2022/04/12 03:14:16;;;;;;;7.07;4.60;;;10.00;54.30;;;;;;5102838;27;20020;-71
2022/04/12 03:16:42;;;;;;;6.90;4.85;;;10.00;54.40;;;;;;5085203;28;20085;-71
2022/04/12 03:19:08;;;;;;;6.15;4.85;;;10.00;54.50;;;;;;5105623;28;20058;-72
2022/04/12 03:21:34;;;;;;;6.93;4.95;;;10.00;54.60;;;;;;5115884;28;20036;-73
2022/04/12 03:24:00;;;;;;;7.40;5.22;;;9.90;54.60;;;;;;5118144;27;20042;-73
2022/04/12 03:26:25;;;;;;;6.45;4.88;;;9.90;54.70;;;;;;5113067;27;20023;-72
2022/04/12 03:28:51;;;;;;;6.78;4.85;;;9.90;54.70;;;;;;5111403;28;20020;-73
2022/04/12 03:31:16;;;;;;;7.15;4.32;;;9.90;54.70;;;;;;5089652;28;20032;-73
2022/04/12 03:33:42;;;;;;;6.18;4.60;;;9.90;54.70;;;;;;5105214;28;20020;-73
2022/04/12 03:36:07;;;;;;;6.93;4.70;;;9.90;54.70;;;;;;5100991;27;20032;-73
2022/04/12 03:38:35;;;;;;;6.57;4.75;;;9.90;54.80;;;;;;5096466;28;20059;-72
2022/04/12 03:41:03;;;;;;;5.85;4.43;;;9.90;54.90;;;;;;5101146;28;20103;-72
2022/04/12 03:43:28;;;;;;;7.85;5.20;;;9.90;54.90;;;;;;5096315;28;20078;-72
2022/04/12 03:45:54;;;;;;;6.18;4.65;;;9.80;55.00;;;;;;5102009;28;20044;-73
2022/04/12 03:48:19;;;;;;;7.38;4.63;;;9.80;55.00;;;;;;5103921;28;20589;-73
2022/04/12 03:50:45;;;;;;;6.53;4.55;;;9.80;55.00;;;;;;5111565;28;20470;-75
2022/04/12 03:53:10;;;;;;;5.80;4.18;;;9.80;55.10;;;;;;5111176;27;20028;-73
2022/04/12 03:55:39;;;;;;;8.00;4.90;;;9.80;55.10;;;;;;5110388;27;20352;-74
2022/04/12 03:58:06;;;;;;;6.40;4.43;;;9.80;55.20;;;;;;5108839;27;20066;-74
2022/04/12 04:00:33;;;;;;;5.93;4.30;;;9.80;55.20;;;;;;5111390;27;20027;-73
2022/04/12 04:02:58;;;;;;;9.65;4.60;;;9.80;55.30;;;;;;5104316;28;20027;-72
2022/04/12 04:05:25;;;;;;;7.75;5.38;;;9.80;55.90;;;;;;5100223;27;20027;-73
2022/04/12 04:07:50;;;;;;;7.00;4.20;;;9.80;55.30;;;;;;5103595;28;20032;-73
2022/04/12 04:10:16;;;;;;;5.82;4.10;;;9.80;55.20;;;;;;5085439;28;20027;-73
2022/04/12 04:12:43;;;;;;;6.63;4.45;;;9.80;55.30;;;;;;5102122;27;20032;-75
2022/04/12 04:15:12;;;;;;;7.93;5.75;;;9.80;55.40;;;;;;5103695;27;20796;-74
2022/04/12 04:17:42;;;;;;;6.22;4.07;;;9.70;55.40;;;;;;5101286;28;20038;-73
2022/04/12 04:20:10;;;;;;;6.90;4.70;;;9.80;55.50;;;;;;5100131;28;20666;-72
2022/04/12 04:22:36;;;;;;;6.28;4.32;;;9.70;55.40;;;;;;5106754;27;20126;-70
2022/04/12 04:25:02;;;;;;;5.82;4.22;;;9.80;55.50;;;;;;5098697;28;20106;-69
2022/04/12 04:27:29;;;;;;;8.30;5.35;;;9.80;55.50;;;;;;5078315;28;20410;-73
2022/04/12 04:29:55;;;;;;;6.80;4.72;;;9.80;55.60;;;;;;5099841;27;20488;-73
2022/04/12 04:32:22;;;;;;;7.70;5.00;;;9.70;55.60;;;;;;5100921;27;20099;-73
2022/04/12 04:34:47;;;;;;;7.10;4.50;;;9.70;55.70;;;;;;5095788;28;21662;-73
2022/04/12 04:37:13;;;;;;;7.40;5.35;;;9.70;55.80;;;;;;5098901;28;20019;-74
2022/04/12 04:39:38;;;;;;;7.80;5.10;;;9.70;55.80;;;;;;5086718;28;20489;-72
2022/04/12 04:42:05;;;;;;;7.22;4.45;;;9.70;55.80;;;;;;5082729;27;20019;-74
2022/04/12 04:44:31;;;;;;;7.20;5.13;;;9.70;55.90;;;;;;5100358;28;20390;-72
2022/04/12 04:46:57;;;;;;;7.03;4.47;;;9.70;55.90;;;;;;5079655;28;20112;-72
2022/04/12 04:49:23;;;;;;;8.05;4.38;;;9.60;55.90;;;;;;5084181;28;20515;-73
2022/04/12 04:51:48;;;;;;;9.32;5.13;;;9.60;56.00;;;;;;5096601;28;20024;-73
2022/04/12 04:54:14;;;;;;;6.78;4.68;;;9.60;56.10;;;;;;5102527;28;20027;-72
2022/04/12 04:56:40;;;;;;;7.57;5.32;;;9.60;56.20;;;;;;5066039;28;20024;-72
2022/04/12 04:59:05;;;;;;;7.45;4.65;;;9.60;56.30;;;;;;5078153;28;20038;-72
2022/04/12 05:01:31;;;;;;;6.75;4.93;;;9.60;56.30;;;;;;5098861;28;20035;-74
2022/04/12 05:03:56;;;;;;;6.18;4.40;;;9.60;56.30;;;;;;5082579;28;20560;-72
2022/04/12 05:06:22;;;;;;;6.10;4.30;;;9.70;56.20;;;;;;5085568;28;20016;-74
2022/04/12 05:08:47;;;;;;;6.97;4.75;;;9.70;56.30;;;;;;5086527;28;20370;-73
2022/04/12 05:11:13;;;;;;;6.68;5.18;;;9.70;56.30;;;;;;5095750;28;20020;-73
2022/04/12 05:13:38;;;;;;;9.10;5.25;;;9.60;56.30;;;;;;5082221;28;20099;-72
2022/04/12 05:16:04;;;;;;;6.45;4.70;;;9.70;56.30;;;;;;5104323;28;20027;-72
2022/04/12 05:18:30;;;;;;;7.50;4.38;;;9.70;56.30;;;;;;5100563;28;20115;-73
2022/04/12 05:20:56;;;;;;;8.05;5.00;;;9.70;56.20;;;;;;5100574;28;20032;-74
2022/04/12 05:23:22;;;;;;;6.88;5.15;;;9.70;56.30;;;;;;5098851;28;20027;-74
2022/04/12 05:25:47;;;;;;;7.80;5.25;;;9.70;56.20;;;;;;5099480;28;20026;-74
2022/04/12 05:28:13;;;;;;;8.27;5.78;;;9.80;56.30;;;;;;5080241;28;20021;-74
2022/04/12 05:30:39;;;;;;;5.82;4.72;;;9.80;56.30;;;;;;5081617;28;20047;-74
2022/04/12 05:33:04;;;;;;;6.50;4.82;;;9.80;56.20;;;;;;5101162;28;20202;-74
2022/04/12 05:35:30;;;;;;;6.70;5.07;;;9.80;56.10;;;;;;5098370;28;20111;-74
2022/04/12 05:37:56;;;;;;;6.30;4.82;;;9.90;56.00;;;;;;5099148;28;20659;-73
2022/04/12 05:40:22;;;;;;;6.85;4.93;;;10.20;55.80;;;;;;5101144;27;20489;-72
2022/04/12 05:42:48;;;;;;;6.50;4.93;;;10.80;54.60;;;;;;5102282;28;20035;-70
2022/04/12 05:45:15;;;;;;;7.47;4.63;;;11.00;53.50;;;;;;5101487;27;20661;-72
2022/04/12 05:47:51;;;;;;;6.80;4.90;;;11.00;53.20;;;;;;5100245;28;20566;-72
2022/04/12 05:50:18;;;;;;;7.72;5.57;;;10.80;53.40;;;;;;5101668;27;20428;-72
2022/04/12 05:52:44;;;;;;;5.68;4.32;;;10.60;53.80;;;;;;5105549;27;20378;-72
2022/04/12 05:55:12;;;;;;;6.97;5.13;;;10.50;54.30;;;;;;5085265;27;20498;-73
2022/04/12 05:57:46;;;;;;;7.50;5.22;;;10.40;54.70;;;;;;5100443;28;20036;-73
2022/04/12 06:00:12;;;;;;;7.40;4.75;;;10.40;54.80;;;;;;5101795;28;20208;-72
2022/04/12 06:02:38;;;;;;;7.80;5.20;;;10.30;55.00;;;;;;5113923;27;20035;-73
2022/04/12 06:05:04;;;;;;;6.35;4.68;;;10.30;55.10;;;;;;5122372;27;20039;-72
2022/04/12 06:07:32;;;;;;;6.78;5.00;;;10.30;55.10;;;;;;5105091;27;20090;-73
2022/04/12 06:09:59;;;;;;;8.38;5.18;;;10.30;55.00;;;;;;5109501;27;20030;-73
2022/04/12 06:12:25;;;;;;;7.57;5.30;;;10.40;55.20;;;;;;5106489;27;20370;-72
2022/04/12 06:14:50;;;;;;;7.18;4.70;;;10.70;54.90;;;;;;5103082;27;20074;-73
2022/04/12 06:17:16;;;;;;;6.88;5.03;;;11.40;54.00;;;;;;5106963;27;20473;-73
2022/04/12 06:19:41;;;;;;;8.05;5.40;;;12.30;51.80;;;;;;5097998;28;20020;-72
2022/04/12 06:22:07;;;;;;;6.35;4.88;;;12.30;50.70;;;;;;5092505;27;20077;-72
2022/04/12 06:24:32;;;;;;;6.55;5.13;;;12.00;51.00;;;;;;5103833;27;20547;-72
2022/04/12 06:26:57;;;;;;;7.75;5.38;;;11.90;51.20;;;;;;5104808;27;20095;-72
2022/04/12 06:29:23;;;;;;;5.88;5.10;;;11.80;51.50;;;;;;5102885;27;20027;-73
2022/04/12 06:31:48;;;;;;;6.40;5.22;;;11.60;51.90;;;;;;5100636;27;20024;-73
2022/04/12 06:34:14;;;;;;;7.90;5.80;;;11.40;52.30;;;;;;5084013;28;20023;-72
2022/04/12 06:36:39;;;;;;;7.65;5.35;;;11.90;52.40;;;;;;5103550;28;20067;-72
2022/04/12 06:39:05;;;;;;;7.22;5.43;;;13.20;50.40;;;;;;5116429;27;20051;-71
2022/04/12 06:41:31;;;;;;;6.93;5.05;;;13.70;47.90;;;;;;5097558;28;20019;-72
2022/04/12 06:43:56;;;;;;;7.63;5.28;;;13.50;48.00;;;;;;5112712;27;20038;-72
2022/04/12 06:46:22;;;;;;;6.70;5.00;;;13.90;47.90;;;;;;5111963;28;20022;-73
2022/04/12 06:48:47;;;;;;;5.95;4.95;;;14.50;46.70;;;;;;5112848;28;20447;-73
2022/04/12 06:51:13;;;;;;;8.10;5.38;;;15.30;45.50;;;;;;5104755;28;20012;-72
2022/04/12 06:53:38;;;;;;;7.43;5.35;;;15.80;44.20;;;;;;5120631;27;20074;-72
2022/04/12 06:56:06;;;;;;;7.53;5.60;;;16.30;43.10;;;;;;5123692;27;20485;-71
2022/04/12 06:58:33;;;;;;;7.13;5.55;;;16.80;42.20;;;;;;5126143;27;20034;-71
2022/04/12 07:00:58;;;;;;;7.15;5.38;;;17.10;41.50;;;;;;5108526;27;20466;-73
2022/04/12 07:03:24;;;;;;;9.60;6.15;;;17.10;41.10;;;;;;5106640;27;20058;-73
2022/04/12 07:05:55;;;;;;;8.23;5.45;;;17.10;41.00;;;;;;5093175;28;20022;-72
2022/04/12 07:08:24;;;;;;;7.97;5.60;;;16.80;41.30;;;;;;5093225;28;20068;-72
2022/04/12 07:10:50;;;;;;;7.35;5.80;;;15.70;42.20;;;;;;5112080;27;20439;-71
2022/04/12 07:13:16;;;;;;;8.25;5.50;;;14.70;44.00;;;;;;5115627;27;20035;-72
2022/04/12 07:15:43;;;;;;;6.57;5.20;;;14.20;45.70;;;;;;5118081;27;20401;-72
2022/04/12 07:18:10;;;;;;;9.27;5.95;;;14.10;46.20;;;;;;5091185;28;20042;-73
2022/04/12 07:20:35;;;;;;;7.60;5.38;;;14.60;46.00;;;;;;5110093;28;20497;-73
2022/04/12 07:23:01;;;;;;;7.70;5.75;;;15.60;44.60;;;;;;5093016;27;20051;-73
2022/04/12 07:25:27;;;;;;;7.70;5.97;;;16.20;43.30;;;;;;5107786;28;20020;-73
2022/04/12 07:27:53;;;;;;;6.63;4.85;;;16.80;42.00;;;;;;5105472;27;20440;-73
2022/04/12 07:30:18;;;;;;;8.18;5.22;;;17.60;41.10;;;;;;5104859;28;20055;-73
2022/04/12 07:32:44;;;;;;;8.13;5.30;;;17.80;40.20;;;;;;5078349;27;20051;-73
2022/04/12 07:35:10;;;;;;;7.65;5.60;;;18.20;39.50;;;;;;5111184;27;20028;-71
2022/04/12 07:37:35;;;;;;;6.85;4.85;;;18.60;39.40;;;;;;5102997;28;20027;-72
2022/04/12 07:40:02;;;;;;;9.40;6.50;;;19.40;38.60;;;;;;5105020;28;20030;-72
2022/04/12 07:42:28;;;;;;;6.38;5.40;;;19.60;37.10;;;;;;5108364;28;20034;-73
2022/04/12 07:44:53;;;;;;;6.10;4.70;;;19.50;37.70;;;;;;5092444;28;20053;-71
2022/04/12 07:47:19;;;;;;;7.38;5.78;;;20.10;37.40;;;;;;5105727;28;20079;-72
2022/04/12 07:49:44;;;;;;;8.48;5.88;;;19.70;36.70;;;;;;5110605;28;20490;-73
2022/04/12 07:52:10;;;;;;;6.68;5.32;;;19.30;37.80;;;;;;5088127;28;20377;-72
2022/04/12 07:54:35;;;;;;;7.13;5.32;;;19.70;38.00;;;;;;5090981;28;20028;-72
2022/04/12 07:57:01;;;;;;;7.93;5.35;;;19.90;37.70;;;;;;5103063;28;20119;-72
2022/04/12 07:59:26;;;;;;;7.28;5.13;;;20.00;37.60;;;;;;5109349;27;20019;-72
2022/04/12 08:01:52;;;;;;;6.57;4.50;;;20.40;37.40;;;;;;5109933;28;20031;-72
2022/04/12 08:04:17;;;;;;;6.07;4.60;;;20.70;37.20;;;;;;5103914;27;20046;-73
2022/04/12 08:06:43;;;;;;;5.63;4.53;;;21.00;37.10;;;;;;5108406;27;20512;-72
2022/04/12 08:09:09;;;;;;;8.35;4.65;;;21.00;36.80;;;;;;5100462;28;20095;-73
2022/04/12 08:11:35;;;;;;;7.10;4.90;;;21.20;36.90;;;;;;5106801;28;20023;-73
2022/04/12 08:14:02;;;;;;;7.20;5.18;;;21.40;36.40;;;;;;5095257;27;20026;-72
2022/04/12 08:16:27;;;;;;;6.68;5.60;;;20.80;36.80;;;;;;5107258;28;20034;-71
2022/04/12 08:18:54;;;;;;;6.95;5.47;;;20.80;37.20;;;;;;5099647;28;20393;-71
2022/04/12 08:21:37;;;;;;;7.68;5.68;;;20.70;37.60;;;;;;5100092;28;20529;-72
2022/04/12 08:24:03;;;;;;;8.70;6.10;;;20.90;37.50;;;;;;5102133;28;20024;-71
2022/04/12 08:26:29;;;;;;;7.28;5.43;;;20.70;37.50;;;;;;5109186;28;20023;-72
2022/04/12 08:28:55;;;;;;;5.88;4.55;;;20.50;38.30;;;;;;5105847;28;20024;-73
2022/04/12 08:31:21;;;;;;;6.07;4.05;;;20.90;38.10;;;;;;5113827;27;20090;-72
2022/04/12 08:33:46;;;;;;;7.13;4.95;;;21.00;38.10;;;;;;5118639;27;20057;-74
2022/04/12 08:36:12;;;;;;;7.80;5.45;;;20.70;37.80;;;;;;5111692;27;20024;-72
2022/04/12 08:38:38;;;;;;;9.27;5.72;;;20.40;38.10;;;;;;5089288;28;20073;-72
2022/04/12 08:41:04;;;;;;;6.47;4.65;;;20.20;38.50;;;;;;5086079;28;20028;-72
2022/04/12 08:43:30;;;;;;;6.70;4.50;;;20.30;38.70;;;;;;5109870;27;20027;-73
2022/04/12 08:45:55;;;;;;;7.60;5.63;;;20.00;38.80;;;;;;5108376;28;20094;-72
2022/04/12 08:48:22;;;;;;;7.88;5.20;;;19.80;38.90;;;;;;5106945;28;20015;-72
2022/04/12 08:50:48;;;;;;;7.00;4.35;;;19.70;39.50;;;;;;5091641;28;20028;-72
2022/04/12 08:53:16;;;;;;;7.03;4.70;;;19.80;39.90;;;;;;5105788;28;20497;-72
2022/04/12 08:55:42;;;;;;;10.30;5.78;;;19.70;40.20;;;;;;5109086;28;20031;-72
2022/04/12 08:58:08;;;;;;;9.35;5.30;;;19.10;40.90;;;;;;5104038;28;20020;-73
2022/04/12 09:00:34;;;;;;;7.70;5.00;;;19.10;41.50;;;;;;5087328;28;20042;-71
2022/04/12 09:02:59;;;;;;;6.95;5.10;;;18.70;42.30;;;;;;5111259;28;20418;-73
2022/04/12 09:05:26;;;;;;;8.43;5.20;;;18.70;43.00;;;;;;5103244;28;20019;-72
2022/04/12 09:07:52;;;;;;;7.15;4.60;;;18.50;43.30;;;;;;5118291;28;20019;-72
2022/04/12 09:10:19;;;;;;;8.07;5.90;;;18.00;43.90;;;;;;5112694;28;20023;-72
2022/04/12 09:12:45;;;;;;;6.72;5.40;;;17.60;44.60;;;;;;5107187;28;20107;-71
2022/04/12 09:15:14;;;;;;;6.75;4.28;;;17.30;45.30;;;;;;5111875;27;20437;-71
2022/04/12 09:17:41;;;;;;;6.50;4.93;;;17.10;46.00;;;;;;5098844;27;20031;-70
2022/04/12 09:20:16;;;;;;;5.45;4.07;;;17.10;46.20;;;;;;5116351;27;20032;-70
2022/04/12 09:22:42;;;;;;;8.30;6.07;;;17.10;46.30;;;;;;5129334;27;20118;-71
2022/04/12 09:25:10;;;;;;;8.25;5.75;;;16.90;46.60;;;;;;5121329;27;20019;-71
2022/04/12 09:27:36;;;;;;;7.63;5.68;;;16.90;46.80;;;;;;5099605;28;20670;-71
2022/04/12 09:30:08;;;;;;;7.93;5.90;;;16.90;47.00;;;;;;5101322;27;20043;-71
2022/04/12 09:32:44;;;;;;;6.70;5.50;;;16.70;47.20;;;;;;5117310;27;20019;-71
2022/04/12 09:35:10;;;;;;;7.47;5.60;;;16.70;47.40;;;;;;5106294;27;20349;-71
2022/04/12 09:37:46;;;;;;;7.10;5.25;;;16.70;47.60;;;;;;5095569;28;20028;-71
2022/04/12 09:40:14;;;;;;;9.15;5.80;;;16.80;47.90;;;;;;5111136;28;20027;-71
2022/04/12 09:42:54;;;;;;;6.00;4.25;;;16.80;48.00;;;;;;5093544;28;20402;-71
2022/04/12 09:45:24;;;;;;;7.65;5.55;;;16.90;48.00;;;;;;5095469;27;20098;-71
2022/04/12 09:47:52;;;;;;;7.28;4.63;;;17.00;47.90;;;;;;5095809;28;20539;-71
2022/04/12 09:50:24;;;;;;;9.45;6.25;;;17.20;47.90;;;;;;5118822;27;20026;-71
2022/04/12 09:53:03;;;;;;;8.02;6.32;;;17.20;47.50;;;;;;5118409;27;20369;-71
2022/04/12 09:55:41;;;;;;;8.77;6.65;;;17.10;47.70;;;;;;5119005;27;20030;-71
2022/04/12 09:58:17;;;;;;;8.43;5.30;;;17.00;47.70;;;;;;5107941;27;20038;-71
2022/04/12 10:00:47;;;;;;;9.15;6.40;;;17.00;48.10;;;;;;5110411;28;20027;-72
2022/04/12 10:03:14;;;;;;;8.90;6.13;;;17.10;48.30;;;;;;5105714;28;20028;-71
2022/04/12 10:05:40;;;;;;;7.68;4.78;;;17.10;48.10;;;;;;5086558;28;20437;-70
2022/04/12 10:08:10;;;;;;;7.18;4.88;;;17.20;48.30;;;;;;5113369;27;20030;-69
2022/04/12 10:10:36;;;;;;;7.18;5.47;;;17.30;48.40;;;;;;5103583;28;20054;-71
2022/04/12 10:13:01;;;;;;;10.35;6.57;;;17.50;48.30;;;;;;5088373;28;20367;-71
2022/04/12 10:15:28;;;;;;;8.95;5.80;;;17.50;47.80;;;;;;5107804;28;20102;-71
2022/04/12 10:17:55;;;;;;;8.60;5.30;;;17.60;48.00;;;;;;5111822;27;20028;-71
2022/04/12 10:20:21;;;;;;;8.18;5.20;;;17.80;48.10;;;;;;5114079;27;20019;-70
2022/04/12 10:22:48;;;;;;;7.03;5.00;;;17.90;47.80;;;;;;5110690;27;20035;-70
2022/04/12 10:25:24;;;;;;;8.85;5.93;;;17.90;47.60;;;;;;5094535;28;20019;-71
2022/04/12 10:27:55;;;;;;;8.02;5.40;;;17.90;47.70;;;;;;5111280;28;20390;-71
2022/04/12 10:30:22;;;;;;;7.70;6.07;;;18.00;47.80;;;;;;5111108;27;20015;-69
2022/04/12 10:33:07;;;;;;;8.57;5.88;;;18.00;48.00;;;;;;5106505;28;20039;-71
2022/04/12 10:35:43;;;;;;;7.55;5.03;;;18.10;47.60;;;;;;5109129;28;20047;-71
2022/04/12 10:38:13;;;;;;;7.50;4.30;;;18.30;47.40;;;;;;5107661;28;20076;-71
2022/04/12 10:41:00;;;;;;;6.85;4.82;;;18.50;47.30;;;;;;5105207;28;20032;-71
2022/04/12 10:43:36;;;;;;;8.05;5.28;;;18.60;47.30;;;;;;5108617;28;20558;-69
2022/04/12 10:46:06;;;;;;;8.63;5.20;;;18.60;46.90;;;;;;5111050;27;20034;-69
2022/04/12 10:48:32;;;;;;;8.88;6.10;;;18.70;46.70;;;;;;5104555;28;20083;-70
2022/04/12 10:51:03;;;;;;;9.82;5.93;;;18.80;46.50;;;;;;5103348;28;20234;-71
2022/04/12 10:53:38;;;;;;;11.20;7.03;;;18.90;46.40;;;;;;5094825;28;20031;-71
2022/04/12 10:56:07;;;;;;;8.07;5.45;;;19.00;46.20;;;;;;5112815;27;20055;-70
2022/04/12 10:58:33;;;;;;;8.55;5.80;;;19.10;46.10;;;;;;5101825;28;20507;-70
2022/04/12 11:00:59;;;;;;;6.80;4.88;;;19.00;45.80;;;;;;5104589;28;20016;-70
2022/04/12 11:03:40;;;;;;;10.52;7.13;;;19.10;46.20;;;;;;5110731;28;20085;-70
2022/04/12 11:06:27;;;;;;;5.63;4.47;;;19.30;45.70;;;;;;5108039;28;20137;-69
2022/04/12 11:09:06;;;;;;;8.65;4.85;;;19.40;45.60;;;;;;5104781;27;20076;-70
2022/04/12 11:11:44;;;;;;;8.32;4.97;;;19.40;45.00;;;;;;5105983;28;20024;-70
2022/04/12 11:14:24;;;;;;;6.28;3.80;;;19.40;45.00;;;;;;5106857;28;20024;-70
2022/04/12 11:16:53;;;;;;;4.60;3.38;;;19.50;45.00;;;;;;5101509;28;20044;-71
2022/04/12 11:19:21;;;;;;;7.22;3.95;;;19.70;44.30;;;;;;5096856;28;20020;-68
2022/04/12 11:21:54;;;;;;;5.80;3.75;;;19.70;43.90;;;;;;5108542;28;20051;-70
2022/04/12 11:24:21;;;;;;;6.75;4.18;;;19.70;44.10;;;;;;5111841;27;20023;-71
2022/04/12 11:26:59;;;;;;;6.43;4.00;;;19.70;43.60;;;;;;5113904;27;20504;-71
2022/04/12 11:29:27;;;;;;;5.25;3.40;;;19.60;43.60;;;;;;5106230;28;20020;-71
2022/04/12 11:31:55;;;;;;;5.47;3.63;;;19.60;44.00;;;;;;5110774;27;20725;-71
2022/04/12 11:34:23;;;;;;;7.18;4.07;;;19.70;43.80;;;;;;5104952;28;20030;-71
2022/04/12 11:36:51;;;;;;;5.07;3.65;;;19.60;43.50;;;;;;5105806;27;20113;-68
2022/04/12 11:39:32;;;;;;;5.28;3.72;;;19.50;43.40;;;;;;5102530;28;20049;-70
2022/04/12 11:41:58;;;;;;;5.37;3.37;;;19.70;43.80;;;;;;5100427;27;20036;-69
2022/04/12 11:44:24;;;;;;;6.10;3.80;;;19.80;44.10;;;;;;5078054;28;20390;-70
2022/04/12 11:46:57;;;;;;;6.53;4.20;;;20.00;43.90;;;;;;5104498;28;20023;-71
2022/04/12 11:49:28;;;;;;;6.80;4.20;;;20.10;43.10;;;;;;5101255;27;20100;-71
2022/04/12 11:51:56;;;;;;;5.05;3.67;;;20.20;42.90;;;;;;5104096;28;20493;-70
2022/04/12 11:54:26;;;;;;;5.95;3.15;;;20.10;42.90;;;;;;5115669;27;20030;-70
2022/04/12 11:57:13;;;;;;;6.43;3.90;;;20.30;43.10;;;;;;5116062;27;20020;-70
2022/04/12 11:59:59;;;;;;;4.65;3.20;;;20.30;42.60;;;;;;5099435;27;20693;-71
2022/04/12 12:02:25;;;;;;;6.35;3.38;;;20.60;42.60;;;;;;5101579;27;20028;-70
2022/04/12 12:04:59;;;;;;;5.65;3.58;;;20.70;42.70;;;;;;5092295;28;20020;-71
2022/04/12 12:07:26;;;;;;;4.72;2.83;;;20.80;42.50;;;;;;5110946;28;20016;-71
2022/04/12 12:10:00;;;;;;;5.47;3.80;;;21.00;42.10;;;;;;5105417;27;20027;-70
2022/04/12 12:12:46;;;;;;;6.40;3.85;;;21.00;41.20;;;;;;5109762;27;20020;-71
2022/04/12 12:15:27;;;;;;;5.60;3.45;;;20.90;41.40;;;;;;5098499;28;20489;-71
2022/04/12 12:17:56;;;;;;;7.13;3.50;;;21.00;42.00;;;;;;5108206;27;20027;-71
2022/04/12 12:20:24;;;;;;;5.90;3.63;;;21.10;41.80;;;;;;5110285;28;20030;-71
2022/04/12 12:22:52;;;;;;;6.53;3.72;;;21.10;41.30;;;;;;5118347;27;20034;-71
2022/04/12 12:25:23;;;;;;;6.20;3.92;;;21.20;41.20;;;;;;5111051;27;20438;-71
2022/04/12 12:27:50;;;;;;;5.93;3.40;;;21.10;41.20;;;;;;5094744;28;20016;-70
2022/04/12 12:30:21;;;;;;;6.25;3.63;;;21.00;41.50;;;;;;5104671;28;20016;-71
2022/04/12 12:32:51;;;;;;;5.57;3.63;;;21.00;41.80;;;;;;5097385;28;20036;-70
2022/04/12 12:35:17;;;;;;;6.00;3.38;;;21.00;41.80;;;;;;5103063;28;20665;-71
2022/04/12 12:37:45;;;;;;;7.00;3.78;;;21.10;41.60;;;;;;5105880;28;20031;-70
2022/04/12 12:40:25;;;;;;;5.03;3.03;;;21.10;41.70;;;;;;5102945;28;20034;-70
2022/04/12 12:42:52;;;;;;;4.97;3.20;;;21.10;41.70;;;;;;5087455;28;20024;-71
2022/04/12 12:45:22;;;;;;;5.82;3.35;;;21.10;41.20;;;;;;5093062;27;20015;-72
2022/04/12 12:47:57;;;;;;;5.57;3.70;;;21.20;41.50;;;;;;5087698;28;20031;-69
2022/04/12 12:50:25;;;;;;;5.50;3.08;;;21.30;41.30;;;;;;5092698;27;20019;-69
2022/04/12 12:52:59;;;;;;;6.68;3.90;;;21.40;41.20;;;;;;5098984;28;20165;-70